Strona główna
METAR-TAF:

METAR-TAF

Lotnisko :

Port lotniczy Norwich

Norwich, Anglia

Szerokość geograficzna: 52-38N, Długość geograficzna: 001-18E, wysokość: 14 m

Aktualna obserwacja pogody

Raport powstał 17 minut temu, godzina 17:50 UTC
Wiatr 4 kt od północny zachód, zmienny między zachód i północ
Temperatura 20°C
Wilgotność 68%
Ciśnienie 1020 hPa
Widzialność 10 km lub więcej
Przerywane chmury na wysokości 3300 ft

METAR: EGSH 161750Z 32004KT 280V360 9999 BKN033 20/14 Q1020 NOSIG

czas: 19:07 (18:07 UTC)

Prognoza

Raport powstał 4 godziny i 9 minut temu, godzina 13:58 UTC
Prognoza ważna od 16 godzina 15 UTC do 16 godzina 24 UTC
Wiatr 10 kt od zachodnio-północny zachód
Widzialność 10 km lub więcej
Rozproszone chmury na wysokości 3000 ft
Prawdopodobieństwo 30%
od 16 godzina 18 UTC do 16 godzina 21 UTC
Wiatr 5 kt od południowy wschód

TAF: EGSH 161358Z 1615/1624 30010KT 9999 SCT030 PROB30 1618/1621 13005KT

Obserwacja i prognoza pogody dla ponad 4000 lotnisk (raport METAR i TAF).

Dostępne stacje oznaczono żółtymi i czerwonymi punktami na mapie.

Najedź kursorem aby zobaczyć nazwę stacji.

Kliknij aby zobaczyć obserwacje i prognozy pogody.

Aby zmienić mapę: kliknij na zielony przycisk z czarnym krzyżykiem, aby powiększyć; na zielony przycisk z myślnikiem, aby pomniejszyć; na zielone strzałki, aby przejść do map sąsiednich.


METAR-TAF: